createdAt,value
2019-06-10T00:00:17.611Z,0.68
2019-06-10T00:02:47.349Z,0.60
2019-06-10T00:05:17.063Z,0.88
2019-06-10T00:07:46.778Z,2.22
2019-06-10T00:10:17.954Z,0.60
2019-06-10T00:12:51.277Z,0.60
2019-06-10T00:15:21.332Z,0.82
2019-06-10T00:18:24.610Z,0.88
2019-06-10T00:20:32.784Z,0.80
2019-06-10T00:23:04.051Z,1.00
2019-06-10T00:25:33.961Z,0.80
2019-06-10T00:28:05.682Z,0.88
2019-06-10T00:30:35.148Z,0.75
2019-06-10T00:33:06.495Z,1.07
2019-06-10T00:35:36.773Z,1.00
2019-06-10T00:38:08.890Z,1.15
2019-06-10T00:40:37.854Z,0.90
2019-06-10T00:43:09.122Z,0.70
2019-06-10T00:45:41.041Z,0.93
2019-06-10T00:48:20.173Z,1.32
2019-06-10T00:50:42.980Z,1.65
2019-06-10T00:53:14.494Z,3.20
2019-06-10T00:55:44.085Z,3.20
2019-06-10T00:58:14.208Z,1.92
2019-06-10T01:00:44.049Z,2.50
2019-06-10T01:03:15.300Z,3.10
2019-06-10T01:05:45.185Z,2.80
2019-06-10T01:08:15.728Z,3.33
2019-06-10T01:10:45.666Z,2.12
2019-06-10T01:13:15.560Z,2.25
2019-06-10T01:15:45.423Z,2.03
2019-06-10T01:18:33.607Z,3.72
2019-06-10T01:21:07.936Z,3.17
2019-06-10T01:23:37.727Z,2.40
2019-06-10T01:26:07.596Z,1.80
2019-06-10T01:28:37.457Z,2.15
2019-06-10T01:31:10.871Z,1.55
2019-06-10T01:33:38.470Z,1.85
2019-06-10T01:36:10.258Z,3.25
2019-06-10T01:38:40.991Z,1.93
2019-06-10T01:41:12.424Z,1.95
2019-06-10T01:43:42.112Z,3.73
2019-06-10T01:46:14.118Z,3.58
2019-06-10T01:48:47.841Z,3.00
2019-06-10T01:51:21.507Z,2.17
2019-06-10T01:53:51.679Z,3.40
2019-06-10T01:56:21.737Z,2.27
2019-06-10T01:58:51.659Z,2.63
2019-06-10T02:01:41.395Z,2.57
2019-06-10T02:04:14.359Z,4.93
2019-06-10T02:06:42.652Z,2.77
2019-06-10T02:09:15.072Z,3.40
2019-06-10T02:11:43.569Z,4.60
2019-06-10T02:14:16.626Z,3.57
2019-06-10T02:16:44.598Z,4.08
2019-06-10T02:19:15.766Z,4.97
2019-06-10T02:21:45.731Z,3.83
2019-06-10T02:24:16.394Z,2.73
2019-06-10T02:26:46.765Z,5.10
2019-06-10T02:29:17.298Z,4.37
2019-06-10T02:31:47.712Z,3.70
2019-06-10T02:34:22.196Z,3.83
2019-06-10T02:36:48.823Z,3.02
2019-06-10T02:39:24.615Z,3.53
2019-06-10T02:41:53.559Z,6.40
2019-06-10T02:44:32.211Z,3.85
2019-06-10T02:46:54.568Z,4.67
2019-06-10T02:49:46.602Z,2.93
2019-06-10T02:51:55.874Z,3.67
2019-06-10T02:54:31.571Z,5.08
2019-06-10T02:56:57.898Z,4.35
2019-06-10T02:59:31.669Z,3.92
2019-06-10T03:01:59.026Z,3.83
2019-06-10T03:04:32.579Z,5.10
2019-06-10T03:07:03.200Z,4.20
2019-06-10T03:09:34.695Z,5.03
2019-06-10T03:12:04.558Z,4.77
2019-06-10T03:14:42.160Z,4.67
2019-06-10T03:17:13.037Z,3.07
2019-06-10T03:19:50.082Z,4.80
2019-06-10T03:22:14.476Z,3.80
2019-06-10T03:24:44.171Z,5.10
2019-06-10T03:27:16.127Z,5.12
2019-06-10T03:29:46.179Z,4.33
2019-06-10T03:32:17.657Z,4.03
2019-06-10T03:34:47.792Z,4.47
2019-06-10T03:37:18.323Z,4.93
2019-06-10T03:39:48.175Z,3.00
2019-06-10T03:42:18.798Z,5.73
2019-06-10T03:44:48.618Z,3.93
2019-06-10T03:47:19.394Z,4.37
2019-06-10T03:49:52.795Z,4.57
2019-06-10T03:52:23.534Z,4.20
2019-06-10T03:54:52.765Z,4.00
2019-06-10T03:57:24.207Z,4.53
2019-06-10T03:59:55.281Z,4.83
2019-06-10T04:02:25.579Z,3.65
2019-06-10T04:04:56.492Z,5.93
2019-06-10T04:07:29.620Z,5.80
2019-06-10T04:09:57.632Z,6.30
2019-06-10T04:12:27.869Z,4.80
2019-06-10T04:14:58.901Z,4.27
2019-06-10T04:17:28.827Z,5.03
2019-06-10T04:20:09.193Z,5.90
2019-06-10T04:22:30.011Z,5.73
2019-06-10T04:24:59.718Z,4.60
2019-06-10T04:27:32.825Z,5.35
2019-06-10T04:30:03.326Z,5.58
2019-06-10T04:32:33.260Z,5.65
2019-06-10T04:35:02.989Z,5.83
2019-06-10T04:37:32.778Z,5.83
2019-06-10T04:40:03.005Z,4.00
2019-06-10T04:42:33.114Z,5.00
2019-06-10T04:45:06.169Z,6.50
2019-06-10T04:47:35.933Z,5.93
2019-06-10T04:50:18.431Z,5.83
2019-06-10T04:52:37.154Z,5.77
2019-06-10T04:55:06.959Z,6.00
2019-06-10T04:57:36.767Z,5.00
2019-06-10T05:00:12.067Z,6.77
2019-06-10T05:02:39.546Z,9.13
2019-06-10T05:05:09.216Z,5.33
2019-06-10T05:07:40.014Z,6.00
2019-06-10T05:10:12.296Z,8.20
2019-06-10T05:12:43.317Z,8.70
2019-06-10T05:15:14.388Z,4.67
2019-06-10T05:17:44.103Z,6.67
2019-06-10T05:20:14.086Z,6.67
2019-06-10T05:22:46.349Z,5.63
2019-06-10T05:25:15.754Z,7.53
2019-06-10T05:27:45.514Z,5.87
2019-06-10T05:30:15.232Z,3.77
2019-06-10T05:32:44.864Z,6.53
2019-06-10T05:35:14.576Z,5.60
2019-06-10T05:37:44.352Z,4.22
2019-06-10T05:40:14.935Z,4.73
2019-06-10T05:42:44.639Z,4.50
2019-06-10T05:45:14.403Z,5.12
2019-06-10T05:47:44.175Z,6.13
2019-06-10T05:50:15.355Z,3.77
2019-06-10T05:52:45.077Z,5.27
2019-06-10T05:55:15.680Z,4.17
2019-06-10T05:57:45.466Z,4.45
2019-06-10T06:00:15.557Z,5.15
2019-06-10T06:02:45.860Z,4.50
2019-06-10T06:05:15.961Z,3.00
2019-06-10T06:08:01.514Z,5.90
2019-06-10T06:10:18.754Z,4.95
2019-06-10T06:12:48.670Z,3.98
2019-06-10T06:15:18.463Z,4.62
2019-06-10T06:18:01.048Z,4.33
2019-06-10T06:20:23.392Z,4.60
2019-06-10T06:22:52.360Z,4.40
2019-06-10T06:25:24.072Z,8.80
2019-06-10T06:27:53.619Z,2.98
2019-06-10T06:30:25.982Z,6.03
2019-06-10T06:32:55.888Z,4.10
2019-06-10T06:35:26.399Z,6.25
2019-06-10T06:37:56.248Z,3.08
2019-06-10T06:40:27.093Z,7.22
2019-06-10T06:42:57.040Z,5.55
2019-06-10T06:45:27.612Z,4.37
2019-06-10T06:47:57.447Z,4.78
2019-06-10T06:50:28.447Z,4.42
2019-06-10T06:53:19.817Z,4.92
2019-06-10T06:55:31.310Z,3.45
2019-06-10T06:58:03.381Z,3.50
2019-06-10T07:00:49.181Z,10.00
2019-06-10T07:03:06.356Z,4.22
2019-06-10T07:05:38.961Z,2.75
2019-06-10T07:08:13.166Z,2.50
2019-06-10T07:10:54.067Z,2.95
2019-06-10T07:13:26.148Z,4.00
2019-06-10T07:15:55.985Z,2.60
2019-06-10T07:18:25.712Z,2.92
2019-06-10T07:20:55.529Z,2.22
2019-06-10T07:23:25.410Z,2.75
2019-06-10T07:25:55.202Z,1.87
2019-06-10T07:28:24.966Z,2.65
2019-06-10T07:30:55.384Z,1.47
2019-06-10T07:33:25.278Z,3.80
2019-06-10T07:35:56.629Z,2.45
2019-06-10T07:38:26.539Z,4.95
2019-06-10T07:40:57.471Z,2.70
2019-06-10T07:43:27.158Z,4.30
2019-06-10T07:45:56.936Z,2.08
2019-06-10T07:48:26.645Z,2.35
2019-06-10T07:50:56.322Z,1.80
2019-06-10T07:53:25.967Z,2.33
2019-06-10T07:55:55.756Z,1.87
2019-06-10T07:58:25.770Z,2.00
2019-06-10T08:00:55.492Z,2.62
2019-06-10T08:03:26.334Z,1.70
2019-06-10T08:05:56.117Z,2.22
2019-06-10T08:08:25.844Z,2.95
2019-06-10T08:10:55.490Z,3.10
2019-06-10T08:13:25.356Z,1.70
2019-06-10T08:15:55.062Z,1.82
2019-06-10T08:18:24.823Z,2.10
2019-06-10T08:20:54.531Z,2.37
2019-06-10T08:23:24.310Z,2.95
2019-06-10T08:25:57.835Z,1.77
2019-06-10T08:28:27.793Z,3.77
2019-06-10T08:30:57.592Z,1.92
2019-06-10T08:33:27.274Z,1.50
2019-06-10T08:36:00.375Z,2.02
2019-06-10T08:38:32.695Z,2.40
2019-06-10T08:40:59.664Z,1.60
2019-06-10T08:43:29.356Z,2.08
2019-06-10T08:45:59.086Z,1.80
2019-06-10T08:48:28.864Z,1.50
2019-06-10T08:50:58.726Z,1.75
2019-06-10T08:53:42.554Z,2.90
2019-06-10T08:56:13.104Z,1.35
2019-06-10T08:58:54.764Z,2.10
2019-06-10T09:01:25.362Z,1.72
2019-06-10T09:03:55.187Z,1.87
2019-06-10T09:06:24.911Z,1.60
2019-06-10T09:08:54.870Z,1.50
2019-06-10T09:11:24.637Z,1.20
2019-06-10T09:13:54.431Z,1.20
2019-06-10T09:16:24.256Z,3.08
2019-06-10T09:18:55.233Z,2.27
2019-06-10T09:21:25.307Z,1.40
2019-06-10T09:23:59.775Z,2.25
2019-06-10T09:26:26.550Z,2.55
2019-06-10T09:28:56.724Z,2.25
2019-06-10T09:31:27.131Z,1.77
2019-06-10T09:33:57.224Z,2.42
2019-06-10T09:36:26.963Z,1.77
2019-06-10T09:38:56.776Z,1.37
2019-06-10T09:41:36.312Z,2.02
2019-06-10T09:43:57.931Z,1.47
2019-06-10T09:46:33.094Z,1.75
2019-06-10T09:49:03.937Z,1.30
2019-06-10T09:51:34.325Z,1.37
2019-06-10T09:54:06.650Z,1.22
2019-06-10T09:56:35.647Z,1.62
2019-06-10T09:59:08.386Z,2.02
2019-06-10T10:01:38.264Z,2.10
2019-06-10T10:04:08.064Z,1.40
2019-06-10T10:06:38.069Z,1.40
2019-06-10T10:09:08.636Z,1.87
2019-06-10T10:11:38.487Z,1.27
2019-06-10T10:14:10.079Z,2.35
2019-06-10T10:16:40.292Z,1.80
2019-06-10T10:19:13.147Z,1.35
2019-06-10T10:21:46.866Z,1.02
2019-06-10T10:24:15.098Z,1.10
2019-06-10T10:26:47.153Z,0.75
2019-06-10T10:29:16.549Z,2.12
2019-06-10T10:31:49.054Z,1.90
2019-06-10T10:34:17.614Z,1.50
2019-06-10T10:36:48.740Z,1.50
2019-06-10T10:39:21.358Z,0.82
2019-06-10T10:41:51.963Z,1.95
2019-06-10T10:44:21.382Z,0.95
2019-06-10T10:46:53.766Z,1.40
2019-06-10T10:49:22.492Z,1.27
2019-06-10T10:51:53.512Z,1.27
2019-06-10T10:54:32.824Z,2.80
2019-06-10T10:56:59.064Z,2.45
2019-06-10T10:59:26.796Z,2.65
2019-06-10T11:01:56.503Z,2.95
2019-06-10T11:04:26.227Z,1.22
2019-06-10T11:06:57.952Z,1.90
2019-06-10T11:09:28.916Z,1.75
2019-06-10T11:11:59.919Z,1.52
2019-06-10T11:14:30.336Z,1.82
2019-06-10T11:17:19.346Z,2.65
2019-06-10T11:19:52.872Z,1.62
2019-06-10T11:22:23.193Z,2.25
2019-06-10T11:24:54.846Z,1.90
2019-06-10T11:27:23.513Z,2.02
2019-06-10T11:29:56.398Z,1.70
2019-06-10T11:32:24.717Z,1.35
2019-06-10T11:34:56.969Z,1.12
2019-06-10T11:37:25.829Z,2.17
2019-06-10T11:39:56.524Z,1.27
2019-06-10T11:42:26.458Z,2.55
2019-06-10T11:44:59.490Z,1.35
2019-06-10T11:47:27.424Z,3.10
2019-06-10T11:49:58.081Z,2.08
2019-06-10T11:52:28.881Z,1.40
2019-06-10T11:55:11.703Z,2.02
2019-06-10T11:57:32.373Z,2.15
2019-06-10T12:00:13.221Z,2.62
2019-06-10T12:02:33.674Z,1.70
2019-06-10T12:05:05.106Z,1.32
2019-06-10T12:07:36.658Z,1.40
2019-06-10T12:10:08.474Z,2.08
2019-06-10T12:12:38.279Z,2.25
2019-06-10T12:15:09.299Z,1.40
2019-06-10T12:17:46.906Z,2.55
2019-06-10T12:20:13.306Z,1.80
2019-06-10T12:22:43.309Z,1.62
2019-06-10T12:25:31.653Z,1.40
2019-06-10T12:27:45.573Z,2.17
2019-06-10T12:30:16.149Z,2.02
2019-06-10T12:32:45.858Z,1.37
2019-06-10T12:35:16.016Z,1.27
2019-06-10T12:37:45.823Z,1.30
2019-06-10T12:40:16.459Z,2.20
2019-06-10T12:42:46.165Z,1.30
2019-06-10T12:45:16.622Z,2.12
2019-06-10T12:47:46.417Z,1.40
2019-06-10T12:50:16.629Z,2.02
2019-06-10T12:52:46.313Z,1.52
2019-06-10T12:55:16.516Z,3.75
2019-06-10T12:57:46.206Z,1.00
2019-06-10T13:00:23.037Z,1.10
2019-06-10T13:02:48.699Z,2.55
2019-06-10T13:05:18.615Z,1.40
2019-06-10T13:07:49.562Z,0.80
2019-06-10T13:10:38.874Z,1.05
2019-06-10T13:13:09.316Z,1.17
2019-06-10T13:15:39.190Z,1.07
2019-06-10T13:18:13.687Z,1.80
2019-06-10T13:20:43.087Z,2.27
2019-06-10T13:23:23.041Z,2.47
2019-06-10T13:25:54.328Z,1.10
2019-06-10T13:28:15.234Z,0.85
2019-06-10T13:30:45.091Z,1.92
2019-06-10T13:33:14.917Z,1.32
2019-06-10T13:35:44.765Z,1.10
2019-06-10T13:38:14.492Z,1.60
2019-06-10T13:40:45.240Z,0.90
2019-06-10T13:43:14.937Z,1.45
2019-06-10T13:45:44.673Z,1.02
2019-06-10T13:48:15.086Z,0.85
2019-06-10T13:50:44.930Z,1.20
2019-06-10T13:53:14.638Z,1.52
2019-06-10T13:55:44.515Z,2.20
2019-06-10T13:58:14.782Z,1.10
2019-06-10T14:00:46.700Z,1.55
2019-06-10T14:03:16.479Z,1.17
2019-06-10T14:05:48.343Z,1.15
2019-06-10T14:08:18.427Z,0.70
2019-06-10T14:10:48.091Z,0.70
2019-06-10T14:13:18.031Z,1.35
2019-06-10T14:15:47.814Z,0.70
2019-06-10T14:18:17.586Z,0.85
2019-06-10T14:20:47.373Z,2.17
2019-06-10T14:23:17.636Z,1.02
2019-06-10T14:25:47.589Z,1.05
2019-06-10T14:28:38.678Z,0.68
2019-06-10T14:30:48.798Z,1.20
2019-06-10T14:33:18.544Z,1.10
2019-06-10T14:35:49.995Z,1.00
2019-06-10T14:38:22.008Z,0.70
2019-06-10T14:40:52.645Z,0.60
2019-06-10T14:43:23.485Z,0.72
2019-06-10T14:45:53.658Z,1.10
2019-06-10T14:48:23.828Z,1.52
2019-06-10T14:50:53.780Z,1.37
2019-06-10T14:53:23.532Z,0.68
2019-06-10T14:55:53.659Z,1.87
2019-06-10T14:58:23.561Z,1.10
2019-06-10T15:00:54.538Z,0.98
2019-06-10T15:03:25.771Z,0.60
2019-06-10T15:05:55.558Z,0.60
2019-06-10T15:08:26.335Z,0.68
2019-06-10T15:10:57.448Z,0.60
2019-06-10T15:13:27.221Z,0.70
2019-06-10T15:15:56.996Z,1.30
2019-06-10T15:18:26.720Z,0.70
2019-06-10T15:20:56.633Z,1.47
2019-06-10T15:23:26.318Z,0.70
2019-06-10T15:25:57.197Z,0.85
2019-06-10T15:28:27.282Z,1.25
2019-06-10T15:30:57.163Z,1.67
2019-06-10T15:33:26.985Z,0.80
2019-06-10T15:35:56.748Z,0.72
2019-06-10T15:38:26.535Z,0.90
2019-06-10T15:40:56.416Z,1.05
2019-06-10T15:43:26.203Z,1.22
2019-06-10T15:45:56.043Z,2.50
2019-06-10T15:48:25.712Z,1.10
2019-06-10T15:50:55.559Z,0.60
2019-06-10T15:53:25.970Z,0.90
2019-06-10T15:56:13.097Z,0.85
2019-06-10T15:58:27.604Z,0.65
2019-06-10T16:00:57.248Z,2.27
2019-06-10T16:03:27.132Z,1.12
2019-06-10T16:05:56.914Z,1.17
2019-06-10T16:08:26.655Z,0.85
2019-06-10T16:10:56.460Z,1.62
2019-06-10T16:13:26.228Z,0.78
2019-06-10T16:15:56.008Z,1.00
2019-06-10T16:18:27.907Z,0.80
2019-06-10T16:20:57.249Z,0.55
2019-06-10T16:23:27.010Z,1.05
2019-06-10T16:25:57.021Z,2.20
2019-06-10T16:28:27.709Z,1.00
2019-06-10T16:30:57.727Z,0.70
2019-06-10T16:33:27.827Z,0.68
2019-06-10T16:35:57.831Z,1.17
2019-06-10T16:38:27.502Z,2.02
2019-06-10T16:40:57.294Z,1.50
2019-06-10T16:43:27.714Z,0.60
2019-06-10T16:45:57.598Z,0.70
2019-06-10T16:48:27.287Z,0.60
2019-06-10T16:50:57.053Z,0.65
2019-06-10T16:53:30.185Z,0.88
2019-06-10T16:55:58.109Z,1.12
2019-06-10T16:58:28.485Z,0.80
2019-06-10T17:00:59.481Z,1.02
2019-06-10T17:03:30.771Z,0.60
2019-06-10T17:06:02.493Z,0.82
2019-06-10T17:08:33.400Z,0.50
2019-06-10T17:11:03.566Z,1.15
2019-06-10T17:13:33.388Z,0.70
2019-06-10T17:16:03.557Z,0.55
2019-06-10T17:18:33.810Z,0.90
2019-06-10T17:21:04.182Z,0.57
2019-06-10T17:23:36.575Z,0.80
2019-06-10T17:26:06.645Z,0.60
2019-06-10T17:28:37.093Z,0.55
2019-06-10T17:31:07.335Z,0.60
2019-06-10T17:33:37.142Z,0.50
2019-06-10T17:36:06.922Z,0.60
2019-06-10T17:38:36.721Z,1.05
2019-06-10T17:41:06.578Z,0.40
2019-06-10T17:43:36.258Z,0.30
2019-06-10T17:46:05.899Z,1.32
2019-06-10T17:48:35.601Z,0.55
2019-06-10T17:51:05.397Z,0.72
2019-06-10T17:53:35.555Z,0.40
2019-06-10T17:56:05.323Z,0.70
2019-06-10T17:58:50.267Z,0.50
2019-06-10T18:01:06.512Z,0.70
2019-06-10T18:03:39.693Z,0.65
2019-06-10T18:06:07.712Z,0.50
2019-06-10T18:08:40.584Z,0.60
2019-06-10T18:11:08.797Z,0.50
2019-06-10T18:13:38.773Z,0.93
2019-06-10T18:16:08.489Z,0.50
2019-06-10T18:18:38.112Z,0.30
2019-06-10T18:21:07.831Z,0.50
2019-06-10T18:23:39.248Z,0.50
2019-06-10T18:26:09.013Z,0.80
2019-06-10T18:28:59.876Z,0.50
2019-06-10T18:31:10.137Z,0.60
2019-06-10T18:33:42.320Z,0.70
2019-06-10T18:36:12.206Z,0.60
2019-06-10T18:38:43.307Z,0.68
2019-06-10T18:41:13.342Z,1.45
2019-06-10T18:43:44.042Z,0.40
2019-06-10T18:46:13.692Z,0.60
2019-06-10T18:48:43.533Z,0.40
2019-06-10T18:51:13.414Z,0.60
2019-06-10T18:53:43.556Z,0.60
2019-06-10T18:56:13.321Z,0.40
2019-06-10T18:58:43.640Z,0.53
2019-06-10T19:01:13.310Z,0.50
2019-06-10T19:03:43.303Z,0.35
2019-06-10T19:06:13.215Z,0.30
2019-06-10T19:08:44.267Z,0.30
2019-06-10T19:11:14.429Z,0.42
2019-06-10T19:13:45.624Z,0.30
2019-06-10T19:16:15.347Z,0.45
2019-06-10T19:18:45.053Z,0.50
2019-06-10T19:21:14.847Z,0.50
2019-06-10T19:23:44.545Z,0.60
2019-06-10T19:26:14.367Z,0.60
2019-06-10T19:28:45.065Z,0.68
2019-06-10T19:31:15.840Z,1.12
2019-06-10T19:33:45.678Z,0.70
2019-06-10T19:36:15.403Z,0.62
2019-06-10T19:38:45.189Z,0.70
2019-06-10T19:41:14.995Z,0.60
2019-06-10T19:43:45.529Z,0.80
2019-06-10T19:46:15.458Z,0.40
2019-06-10T19:48:57.343Z,0.40
2019-06-10T19:51:18.256Z,0.57
2019-06-10T19:53:48.267Z,0.55
2019-06-10T19:56:19.043Z,0.47
2019-06-10T19:58:48.710Z,0.40
2019-06-10T20:01:18.348Z,0.50
2019-06-10T20:03:48.219Z,0.50
2019-06-10T20:06:17.928Z,0.40
2019-06-10T20:08:48.665Z,0.40
2019-06-10T20:11:18.431Z,0.55
2019-06-10T20:13:48.295Z,0.45
2019-06-10T20:16:19.369Z,0.65
2019-06-10T20:18:49.855Z,0.50
2019-06-10T20:21:25.088Z,0.50
2019-06-10T20:23:54.975Z,0.60
2019-06-10T20:26:27.944Z,0.50
2019-06-10T20:28:57.806Z,0.47
2019-06-10T20:31:27.587Z,0.72
2019-06-10T20:33:57.405Z,0.60
2019-06-10T20:36:27.477Z,0.60
2019-06-10T20:38:57.310Z,0.98
2019-06-10T20:41:26.981Z,0.80
2019-06-10T20:43:59.783Z,0.60
2019-06-10T20:46:29.479Z,0.65
2019-06-10T20:48:59.286Z,0.80
2019-06-10T20:51:29.095Z,1.07
2019-06-10T20:53:58.788Z,0.55
2019-06-10T20:56:28.514Z,0.62
2019-06-10T20:58:58.335Z,0.65
2019-06-10T21:01:28.146Z,0.60
2019-06-10T21:03:59.656Z,0.60
2019-06-10T21:06:32.705Z,0.75
2019-06-10T21:09:04.130Z,0.70
2019-06-10T21:11:35.474Z,0.80
2019-06-10T21:14:05.780Z,1.20
2019-06-10T21:16:35.624Z,0.70
2019-06-10T21:19:05.525Z,0.70
2019-06-10T21:21:36.283Z,0.60
2019-06-10T21:24:06.071Z,0.68
2019-06-10T21:26:35.741Z,0.78
2019-06-10T21:29:05.454Z,0.80
2019-06-10T21:31:35.081Z,0.70
2019-06-10T21:34:05.138Z,1.10
2019-06-10T21:36:34.833Z,1.00
2019-06-10T21:39:06.887Z,1.02
2019-06-10T21:41:36.595Z,0.95
2019-06-10T21:44:06.378Z,0.93
2019-06-10T21:46:36.063Z,1.95
2019-06-10T21:49:05.779Z,1.15
2019-06-10T21:51:35.529Z,0.90
2019-06-10T21:54:06.283Z,0.90
2019-06-10T21:56:35.952Z,0.95
2019-06-10T21:59:05.758Z,1.60
2019-06-10T22:01:35.457Z,1.00
2019-06-10T22:04:05.546Z,0.77
2019-06-10T22:06:35.308Z,1.00
2019-06-10T22:09:06.560Z,0.80
2019-06-10T22:11:36.359Z,0.73
2019-06-10T22:14:06.124Z,0.77
2019-06-10T22:16:35.896Z,0.73
2019-06-10T22:19:05.636Z,0.80
2019-06-10T22:21:35.520Z,0.90
2019-06-10T22:24:05.321Z,0.90
2019-06-10T22:26:35.002Z,1.00
2019-06-10T22:29:04.697Z,1.17
2019-06-10T22:31:34.382Z,0.80
2019-06-10T22:34:04.222Z,1.63
2019-06-10T22:36:33.905Z,1.00
2019-06-10T22:39:04.798Z,1.20
2019-06-10T22:41:36.119Z,1.17
2019-06-10T22:44:07.194Z,1.30
2019-06-10T22:46:36.954Z,1.62
2019-06-10T22:49:06.782Z,1.40
2019-06-10T22:51:36.603Z,2.07
2019-06-10T22:54:06.263Z,1.50
2019-06-10T22:56:35.972Z,3.43
2019-06-10T22:59:06.328Z,2.07
2019-06-10T23:01:38.386Z,1.80
2019-06-10T23:04:07.439Z,3.07
2019-06-10T23:06:37.135Z,3.23
2019-06-10T23:09:07.431Z,1.10
2019-06-10T23:11:37.135Z,2.67
2019-06-10T23:14:06.822Z,1.27
2019-06-10T23:16:36.473Z,1.70
2019-06-10T23:19:06.148Z,1.53
2019-06-10T23:21:36.279Z,1.17
2019-06-10T23:24:06.050Z,1.50
2019-06-10T23:26:36.036Z,1.53
2019-06-10T23:29:05.745Z,1.70
2019-06-10T23:31:48.735Z,1.70
2019-06-10T23:34:06.691Z,1.20
2019-06-10T23:36:36.337Z,1.67
2019-06-10T23:39:06.650Z,2.17
2019-06-10T23:41:36.562Z,1.33
2019-06-10T23:44:06.236Z,2.57
2019-06-10T23:46:35.964Z,1.37
2019-06-10T23:49:05.646Z,1.90
2019-06-10T23:51:35.364Z,1.20
2019-06-10T23:54:06.336Z,1.70
2019-06-10T23:56:36.591Z,1.20
2019-06-10T23:59:06.286Z,1.43
